createdAt,value
2022-09-15T00:01:01.240Z,90.90
2022-09-15T00:03:28.584Z,91.05
2022-09-15T00:05:55.825Z,91.63
2022-09-15T00:08:23.832Z,91.53
2022-09-15T00:11:18.912Z,90.78
2022-09-15T00:13:46.446Z,91.03
2022-09-15T00:16:15.400Z,91.20
2022-09-15T00:18:42.883Z,91.69
2022-09-15T00:21:13.027Z,92.14
2022-09-15T00:23:40.271Z,91.45
2022-09-15T00:26:12.756Z,91.54
2022-09-15T00:28:40.555Z,91.55
2022-09-15T00:31:10.147Z,91.23
2022-09-15T00:33:37.628Z,91.38
2022-09-15T00:36:06.879Z,91.00
2022-09-15T00:38:34.769Z,91.51
2022-09-15T00:41:02.850Z,91.13
2022-09-15T00:43:53.546Z,91.85
2022-09-15T00:46:23.831Z,91.52
2022-09-15T00:49:08.869Z,91.57
2022-09-15T00:51:52.829Z,92.16
2022-09-15T00:54:26.642Z,92.94
2022-09-15T00:56:55.421Z,92.59
2022-09-15T00:59:25.739Z,92.86
2022-09-15T01:02:01.421Z,92.68
2022-09-15T01:04:28.716Z,92.80
2022-09-15T01:07:00.272Z,93.42
2022-09-15T01:09:37.768Z,93.52
2022-09-15T01:12:05.260Z,93.51
2022-09-15T01:14:32.449Z,93.56
2022-09-15T01:17:07.220Z,93.68
2022-09-15T01:20:00.216Z,93.45
2022-09-15T01:22:33.615Z,93.21
2022-09-15T01:25:08.730Z,93.52
2022-09-15T01:28:09.985Z,94.00
2022-09-15T01:30:41.435Z,93.95
2022-09-15T01:33:22.412Z,94.15
2022-09-15T01:35:56.757Z,94.30
2022-09-15T01:39:02.642Z,94.26
2022-09-15T01:41:37.896Z,94.43
2022-09-15T01:44:24.499Z,94.48
2022-09-15T01:46:57.090Z,93.85
2022-09-15T01:49:29.194Z,93.81
2022-09-15T01:51:56.391Z,93.10
2022-09-15T01:54:28.708Z,93.41
2022-09-15T01:56:56.892Z,92.69
2022-09-15T01:59:24.190Z,93.06
2022-09-15T02:02:00.583Z,93.74
2022-09-15T02:04:33.689Z,94.05
2022-09-15T02:07:20.571Z,94.42
2022-09-15T02:10:05.535Z,94.69
2022-09-15T02:12:50.681Z,94.68
2022-09-15T02:15:33.488Z,95.12
2022-09-15T02:18:02.928Z,95.34
2022-09-15T02:20:48.505Z,95.48
2022-09-15T02:23:21.712Z,95.09
2022-09-15T02:25:51.692Z,95.42
2022-09-15T02:28:21.817Z,94.88
2022-09-15T02:30:49.937Z,96.30
2022-09-15T02:33:19.785Z,95.89
2022-09-15T02:35:47.517Z,95.97
2022-09-15T02:38:15.215Z,95.68
2022-09-15T02:40:44.437Z,94.99
2022-09-15T02:43:13.064Z,94.91
2022-09-15T02:45:40.479Z,94.64
2022-09-15T02:48:09.791Z,94.52
2022-09-15T02:50:37.372Z,93.58
2022-09-15T02:53:04.991Z,93.07
2022-09-15T02:55:32.439Z,93.52
2022-09-15T02:57:59.679Z,92.80
2022-09-15T03:00:28.366Z,93.11
2022-09-15T03:02:56.329Z,92.88
2022-09-15T03:05:30.583Z,93.39
2022-09-15T03:07:58.058Z,93.90
2022-09-15T03:10:26.098Z,94.14
2022-09-15T03:12:54.233Z,94.45
2022-09-15T03:15:23.926Z,94.85
2022-09-15T03:17:52.079Z,95.17
2022-09-15T03:20:21.579Z,95.06
2022-09-15T03:22:49.566Z,95.31
2022-09-15T03:25:17.516Z,95.44
2022-09-15T03:27:44.687Z,95.46
2022-09-15T03:30:15.693Z,95.54
2022-09-15T03:32:42.907Z,95.66
2022-09-15T03:35:10.318Z,95.52
2022-09-15T03:37:37.517Z,95.29
2022-09-15T03:40:05.437Z,95.33
2022-09-15T03:42:32.777Z,95.42
2022-09-15T03:44:59.946Z,95.39
2022-09-15T03:47:27.121Z,95.10
2022-09-15T03:49:55.336Z,95.33
2022-09-15T03:52:22.596Z,95.07
2022-09-15T03:54:49.840Z,95.39
2022-09-15T03:57:17.106Z,95.38
2022-09-15T03:59:44.366Z,95.53
2022-09-15T04:02:11.665Z,95.96
2022-09-15T04:04:38.917Z,96.24
2022-09-15T04:07:06.176Z,96.55
2022-09-15T04:09:33.394Z,96.72
2022-09-15T04:12:00.639Z,96.93
2022-09-15T04:14:27.854Z,97.07
2022-09-15T04:16:55.012Z,96.87
2022-09-15T04:19:22.224Z,96.84
2022-09-15T04:21:49.381Z,96.81
2022-09-15T04:24:17.211Z,96.93
2022-09-15T04:26:45.194Z,96.93
2022-09-15T04:29:14.792Z,97.21
2022-09-15T04:31:42.257Z,98.06
2022-09-15T04:34:10.128Z,98.17
2022-09-15T04:36:37.336Z,99.03
2022-09-15T04:39:06.089Z,99.00
2022-09-15T04:41:33.689Z,98.88
2022-09-15T04:44:00.868Z,98.83
2022-09-15T04:46:28.155Z,99.25
2022-09-15T04:48:56.476Z,98.87
2022-09-15T04:51:24.532Z,98.45
2022-09-15T04:53:52.299Z,98.48
2022-09-15T04:56:22.620Z,98.56
2022-09-15T04:59:03.141Z,98.69
2022-09-15T05:01:33.851Z,98.41
2022-09-15T05:04:04.166Z,98.60
2022-09-15T05:06:33.075Z,98.57
2022-09-15T05:09:00.347Z,98.58
2022-09-15T05:11:28.406Z,98.23
2022-09-15T05:13:55.766Z,98.27
2022-09-15T05:16:24.630Z,97.69
2022-09-15T05:18:53.140Z,97.44
2022-09-15T05:21:21.979Z,96.93
2022-09-15T05:23:50.247Z,96.69
2022-09-15T05:26:19.980Z,96.62
2022-09-15T05:28:47.192Z,96.24
2022-09-15T05:31:23.779Z,96.86
2022-09-15T05:33:53.238Z,96.67
2022-09-15T05:36:23.842Z,95.99
2022-09-15T05:38:51.666Z,95.86
2022-09-15T05:41:19.545Z,94.93
2022-09-15T05:43:48.072Z,94.56
2022-09-15T05:46:16.011Z,93.34
2022-09-15T05:48:43.638Z,93.03
2022-09-15T05:51:11.094Z,92.58
2022-09-15T05:53:40.096Z,92.53
2022-09-15T05:56:12.238Z,92.37
2022-09-15T05:58:41.381Z,92.46
2022-09-15T06:01:21.006Z,92.10
2022-09-15T06:03:48.850Z,91.83
2022-09-15T06:06:16.193Z,89.97
2022-09-15T06:08:48.272Z,89.01
2022-09-15T06:11:20.419Z,87.99
2022-09-15T06:13:48.350Z,86.70
2022-09-15T06:16:20.852Z,86.26
2022-09-15T06:18:49.256Z,86.01
2022-09-15T06:21:18.935Z,85.32
2022-09-15T06:23:50.728Z,84.89
2022-09-15T06:26:19.238Z,84.36
2022-09-15T06:28:57.943Z,84.14
2022-09-15T06:31:26.442Z,84.30
2022-09-15T06:33:56.214Z,83.64
2022-09-15T06:36:26.025Z,82.30
2022-09-15T06:38:53.611Z,82.44
2022-09-15T06:41:21.337Z,81.67
2022-09-15T06:43:49.457Z,80.90
2022-09-15T06:46:19.574Z,80.11
2022-09-15T06:48:48.811Z,78.84
2022-09-15T06:51:17.779Z,78.17
2022-09-15T06:53:45.553Z,76.95
2022-09-15T06:56:14.846Z,76.54
2022-09-15T06:58:42.453Z,76.57
2022-09-15T07:01:12.327Z,76.41
2022-09-15T07:03:41.056Z,77.11
2022-09-15T07:06:09.227Z,76.30
2022-09-15T07:08:36.728Z,76.04
2022-09-15T07:11:04.315Z,75.32
2022-09-15T07:13:31.572Z,76.77
2022-09-15T07:16:01.296Z,75.66
2022-09-15T07:18:28.631Z,76.30
2022-09-15T07:21:05.204Z,75.62
2022-09-15T07:23:33.554Z,75.76
2022-09-15T07:26:08.011Z,75.63
2022-09-15T07:28:35.630Z,76.32
2022-09-15T07:31:03.862Z,76.09
2022-09-15T07:33:31.273Z,75.74
2022-09-15T07:35:58.621Z,75.61
2022-09-15T07:38:27.158Z,75.16
2022-09-15T07:40:54.674Z,74.90
2022-09-15T07:43:21.865Z,75.31
2022-09-15T07:45:50.144Z,74.88
2022-09-15T07:48:17.425Z,74.64
2022-09-15T07:50:47.092Z,75.11
2022-09-15T07:53:14.393Z,75.16
2022-09-15T07:55:42.734Z,72.48
2022-09-15T07:58:09.960Z,72.92
2022-09-15T08:00:38.813Z,73.15
2022-09-15T08:03:06.334Z,72.35
2022-09-15T08:05:37.762Z,72.10
2022-09-15T08:08:06.816Z,72.18
2022-09-15T08:10:34.964Z,71.15
2022-09-15T08:13:02.191Z,71.04
2022-09-15T08:15:29.552Z,70.41
2022-09-15T08:17:56.716Z,70.32
2022-09-15T08:20:24.106Z,70.24
2022-09-15T08:22:51.347Z,68.24
2022-09-15T08:25:18.613Z,67.50
2022-09-15T08:27:45.843Z,68.97
2022-09-15T08:30:13.659Z,68.28
2022-09-15T08:32:40.864Z,69.52
2022-09-15T08:35:08.716Z,68.29
2022-09-15T08:37:35.972Z,68.02
2022-09-15T08:40:03.571Z,68.22
2022-09-15T08:42:31.405Z,68.07
2022-09-15T08:45:05.195Z,67.35
2022-09-15T08:47:36.326Z,68.22
2022-09-15T08:50:23.116Z,67.54
2022-09-15T08:53:03.733Z,69.39
2022-09-15T08:55:41.653Z,67.87
2022-09-15T08:58:15.109Z,67.49
2022-09-15T09:00:43.299Z,67.91
2022-09-15T09:03:35.483Z,67.50
2022-09-15T09:06:21.830Z,67.44
2022-09-15T09:09:06.359Z,69.22
2022-09-15T09:12:01.554Z,69.29
2022-09-15T09:14:50.682Z,68.72
2022-09-15T09:17:40.286Z,67.47
2022-09-15T09:20:38.668Z,67.63
2022-09-15T09:23:15.921Z,67.59
2022-09-15T09:25:44.325Z,67.07
2022-09-15T09:28:27.513Z,66.04
2022-09-15T09:30:57.259Z,65.97
2022-09-15T09:33:47.900Z,65.48
2022-09-15T09:36:15.428Z,65.60
2022-09-15T09:38:44.186Z,65.02
2022-09-15T09:41:25.522Z,64.01
2022-09-15T09:43:54.467Z,63.99
2022-09-15T09:46:22.235Z,63.77
2022-09-15T09:49:03.567Z,64.43
2022-09-15T09:51:37.210Z,65.88
2022-09-15T09:54:06.502Z,64.62
2022-09-15T09:56:35.340Z,64.17
2022-09-15T09:59:03.516Z,63.63
2022-09-15T10:01:31.117Z,62.84
2022-09-15T10:04:19.035Z,62.35
2022-09-15T10:06:46.681Z,62.32
2022-09-15T10:09:18.624Z,60.11
2022-09-15T10:12:00.135Z,61.50
2022-09-15T10:14:30.431Z,61.20
2022-09-15T10:17:06.731Z,61.21
2022-09-15T10:19:45.228Z,58.92
2022-09-15T10:22:31.601Z,61.48
2022-09-15T10:25:00.586Z,61.88
2022-09-15T10:27:35.676Z,58.42
2022-09-15T10:30:15.099Z,60.62
2022-09-15T10:32:43.253Z,59.10
2022-09-15T10:35:11.437Z,58.99
2022-09-15T10:38:02.269Z,58.35
2022-09-15T10:41:00.070Z,57.94
2022-09-15T10:43:54.614Z,59.14
2022-09-15T10:46:39.210Z,56.79
2022-09-15T10:49:29.191Z,54.30
2022-09-15T10:52:10.801Z,53.76
2022-09-15T10:54:55.847Z,51.98
2022-09-15T10:57:36.541Z,51.70
2022-09-15T11:00:11.951Z,51.61
2022-09-15T11:03:03.868Z,50.39
2022-09-15T11:05:42.331Z,51.46
2022-09-15T11:08:31.952Z,52.59
2022-09-15T11:11:15.766Z,51.00
2022-09-15T11:13:53.174Z,51.21
2022-09-15T11:16:41.128Z,49.58
2022-09-15T11:19:29.645Z,50.42
2022-09-15T11:22:01.323Z,51.56
2022-09-15T11:24:47.977Z,48.79
2022-09-15T11:27:26.268Z,50.41
2022-09-15T11:30:31.041Z,49.44
2022-09-15T11:33:07.417Z,50.58
2022-09-15T11:35:40.515Z,51.52
2022-09-15T11:38:29.351Z,49.73
2022-09-15T11:41:17.469Z,48.47
2022-09-15T11:44:17.126Z,49.80
2022-09-15T11:47:21.967Z,48.90
2022-09-15T11:49:55.161Z,50.40
2022-09-15T11:52:40.342Z,49.40
2022-09-15T11:55:43.018Z,50.18
2022-09-15T11:58:21.837Z,50.89
2022-09-15T12:01:03.495Z,50.56
2022-09-15T12:03:38.103Z,51.59
2022-09-15T12:06:13.425Z,49.59
2022-09-15T12:08:44.400Z,51.12
2022-09-15T12:11:21.441Z,50.96
2022-09-15T12:13:49.130Z,49.64
2022-09-15T12:16:17.073Z,50.47
2022-09-15T12:19:02.132Z,49.16
2022-09-15T12:22:04.529Z,50.33
2022-09-15T12:24:42.169Z,49.32
2022-09-15T12:27:15.958Z,48.70
2022-09-15T12:29:55.523Z,49.76
2022-09-15T12:32:35.421Z,51.25
2022-09-15T12:35:18.002Z,50.49
2022-09-15T12:37:54.734Z,50.42
2022-09-15T12:40:35.522Z,51.09
2022-09-15T12:43:04.672Z,51.03
2022-09-15T12:45:33.571Z,51.69
2022-09-15T12:51:14.380Z,52.10
2022-09-15T12:53:55.700Z,51.33
2022-09-15T12:56:28.029Z,51.71
2022-09-15T13:01:51.357Z,52.51
2022-09-15T13:04:56.532Z,52.66
2022-09-15T13:07:33.469Z,52.43
2022-09-15T13:10:10.797Z,52.54
2022-09-15T13:12:43.386Z,54.19
2022-09-15T13:15:14.913Z,53.37
2022-09-15T13:17:44.584Z,53.61
2022-09-15T13:20:18.019Z,52.99
2022-09-15T13:22:49.297Z,52.49
2022-09-15T13:25:19.991Z,53.36
2022-09-15T13:27:50.633Z,54.13
2022-09-15T13:30:39.734Z,53.91
2022-09-15T13:33:10.871Z,53.41
2022-09-15T13:36:13.280Z,52.44
2022-09-15T13:39:05.617Z,53.45
2022-09-15T13:41:51.757Z,53.15
2022-09-15T13:44:46.087Z,52.90
2022-09-15T13:47:18.615Z,54.09
2022-09-15T13:50:09.744Z,53.38
2022-09-15T13:52:55.086Z,54.10
2022-09-15T13:55:28.385Z,53.02
2022-09-15T14:00:49.321Z,53.93
2022-09-15T14:03:21.301Z,53.29
2022-09-15T14:05:51.200Z,53.51
2022-09-15T14:08:23.113Z,52.82
2022-09-15T14:11:05.550Z,53.33
2022-09-15T14:13:36.241Z,53.11
2022-09-15T14:16:23.787Z,54.16
2022-09-15T14:18:53.135Z,54.30
2022-09-15T14:21:23.136Z,53.54
2022-09-15T14:23:52.367Z,53.60
2022-09-15T14:26:26.121Z,53.88
2022-09-15T14:28:59.816Z,54.21
2022-09-15T14:31:49.543Z,53.60
2022-09-15T14:34:51.779Z,53.50
2022-09-15T14:37:29.426Z,54.23
2022-09-15T14:39:59.247Z,54.66
2022-09-15T14:42:32.498Z,54.53
2022-09-15T14:46:02.363Z,55.23
2022-09-15T14:48:28.422Z,54.54
2022-09-15T14:51:09.069Z,54.13
2022-09-15T14:53:41.189Z,53.89
2022-09-15T14:56:23.585Z,55.06
2022-09-15T14:58:57.321Z,55.87
2022-09-15T15:01:37.066Z,56.52
2022-09-15T15:04:19.892Z,56.55
2022-09-15T15:07:10.152Z,56.50
2022-09-15T15:09:39.847Z,56.31
2022-09-15T15:12:13.147Z,56.58
2022-09-15T15:14:44.063Z,54.86
2022-09-15T15:17:24.215Z,54.17
2022-09-15T15:19:59.384Z,53.85
2022-09-15T15:22:27.425Z,53.84
2022-09-15T15:24:54.820Z,54.27
2022-09-15T15:27:34.350Z,52.87
2022-09-15T15:30:30.934Z,53.21
2022-09-15T15:33:05.447Z,53.15
2022-09-15T15:35:33.572Z,53.22
2022-09-15T15:38:19.456Z,54.35
2022-09-15T15:47:13.142Z,54.01
2022-09-15T15:50:02.359Z,57.86
2022-09-15T15:52:29.595Z,62.22
2022-09-15T15:54:56.851Z,64.70
2022-09-15T15:57:40.015Z,66.57
2022-09-15T16:00:53.358Z,66.58
2022-09-15T16:03:21.858Z,67.52
2022-09-15T16:05:54.454Z,67.62
2022-09-15T16:18:53.708Z,66.84
2022-09-15T16:21:37.054Z,65.88
2022-09-15T16:24:11.827Z,66.42
2022-09-15T16:26:39.705Z,66.14
2022-09-15T16:29:07.752Z,64.47
2022-09-15T16:31:36.386Z,64.64
2022-09-15T16:34:04.185Z,64.97
2022-09-15T16:36:37.658Z,65.73
2022-09-15T16:39:11.636Z,64.76
2022-09-15T16:41:41.443Z,65.17
2022-09-15T16:44:27.577Z,65.23
2022-09-15T16:46:55.039Z,65.22
2022-09-15T16:49:23.529Z,66.41
2022-09-15T16:51:51.850Z,68.06
2022-09-15T16:54:21.509Z,69.43
2022-09-15T16:56:48.825Z,71.09
2022-09-15T16:59:16.266Z,72.83
2022-09-15T17:01:43.922Z,73.78
2022-09-15T17:04:16.693Z,74.52
2022-09-15T17:06:44.270Z,74.33
2022-09-15T17:09:13.928Z,74.73
2022-09-15T17:11:42.484Z,75.15
2022-09-15T17:14:14.053Z,75.36
2022-09-15T17:16:41.627Z,74.63
2022-09-15T17:19:08.851Z,74.49
2022-09-15T17:21:36.503Z,75.40
2022-09-15T17:24:03.962Z,75.92
2022-09-15T17:26:31.802Z,76.92
2022-09-15T17:28:59.096Z,75.86
2022-09-15T17:31:28.908Z,76.35
2022-09-15T17:33:58.118Z,76.66
2022-09-15T17:36:26.544Z,78.24
2022-09-15T17:38:53.968Z,77.86
2022-09-15T17:41:24.558Z,78.40
2022-09-15T17:43:52.039Z,78.87
2022-09-15T17:46:19.894Z,79.49
2022-09-15T17:48:48.607Z,78.47
2022-09-15T17:51:22.240Z,78.59
2022-09-15T17:54:37.638Z,78.08
2022-09-15T18:00:14.777Z,78.38
2022-09-15T18:02:48.665Z,78.96
2022-09-15T18:05:31.649Z,78.99
2022-09-15T18:08:11.353Z,79.00
2022-09-15T18:10:40.641Z,79.00
2022-09-15T18:13:15.605Z,79.10
2022-09-15T18:15:43.641Z,79.44
2022-09-15T18:18:14.981Z,78.74
2022-09-15T18:20:42.546Z,79.32
2022-09-15T18:23:14.881Z,79.25
2022-09-15T18:25:42.702Z,78.81
2022-09-15T18:28:10.058Z,79.46
2022-09-15T18:30:43.218Z,79.55
2022-09-15T18:33:16.706Z,79.94
2022-09-15T18:35:44.992Z,80.74
2022-09-15T18:38:13.382Z,80.63
2022-09-15T18:40:51.579Z,81.09
2022-09-15T18:43:21.493Z,81.51
2022-09-15T18:45:49.725Z,81.74
2022-09-15T18:48:26.895Z,81.78
2022-09-15T18:50:55.220Z,81.73
2022-09-15T18:53:23.326Z,81.37
2022-09-15T18:55:51.100Z,81.52
2022-09-15T18:58:20.417Z,81.62
2022-09-15T19:00:48.559Z,80.61
2022-09-15T19:03:16.276Z,80.26
2022-09-15T19:05:43.591Z,80.48
2022-09-15T19:08:11.570Z,79.90
2022-09-15T19:10:41.656Z,79.91
2022-09-15T19:13:11.484Z,79.86
2022-09-15T19:15:43.926Z,79.39
2022-09-15T19:18:11.421Z,79.09
2022-09-15T19:20:38.851Z,79.70
2022-09-15T19:23:07.692Z,79.28
2022-09-15T19:25:35.325Z,79.58
2022-09-15T19:28:06.302Z,79.12
2022-09-15T19:30:44.621Z,78.62
2022-09-15T19:33:20.332Z,79.06
2022-09-15T19:35:56.277Z,78.84
2022-09-15T19:38:36.300Z,79.06
2022-09-15T19:41:16.141Z,79.31
2022-09-15T19:43:54.080Z,79.44
2022-09-15T19:46:25.372Z,79.23
2022-09-15T19:48:58.347Z,79.57
2022-09-15T19:51:26.339Z,79.26
2022-09-15T19:53:55.839Z,79.98
2022-09-15T19:56:26.159Z,80.26
2022-09-15T19:58:56.206Z,81.11
2022-09-15T20:01:25.906Z,80.77
2022-09-15T20:03:54.692Z,81.22
2022-09-15T20:06:22.312Z,82.21
2022-09-15T20:08:53.415Z,81.74
2022-09-15T20:11:22.763Z,82.33
2022-09-15T20:13:50.201Z,82.26
2022-09-15T20:16:19.037Z,82.68
2022-09-15T20:18:48.060Z,82.43
2022-09-15T20:21:32.418Z,82.40
2022-09-15T20:24:01.717Z,82.98
2022-09-15T20:26:31.602Z,82.48
2022-09-15T20:29:02.989Z,82.54
2022-09-15T20:31:36.053Z,82.33
2022-09-15T20:34:03.394Z,82.46
2022-09-15T20:36:36.565Z,82.72
2022-09-15T20:39:09.340Z,82.53
2022-09-15T20:41:37.238Z,81.95
2022-09-15T20:44:06.143Z,81.87
2022-09-15T20:46:50.639Z,81.75
2022-09-15T20:49:18.120Z,81.56
2022-09-15T20:51:45.455Z,81.27
2022-09-15T20:54:12.922Z,80.91
2022-09-15T20:56:40.359Z,81.17
2022-09-15T20:59:10.530Z,81.35
2022-09-15T21:01:39.145Z,81.80
2022-09-15T21:04:08.952Z,81.87
2022-09-15T21:06:36.604Z,82.27
2022-09-15T21:09:05.213Z,81.95
2022-09-15T21:11:32.864Z,81.72
2022-09-15T21:14:00.338Z,81.71
2022-09-15T21:16:28.722Z,80.85
2022-09-15T21:18:57.593Z,80.92
2022-09-15T21:21:27.306Z,81.22
2022-09-15T21:24:01.179Z,80.72
2022-09-15T21:26:30.799Z,80.55
2022-09-15T21:28:58.076Z,80.42
2022-09-15T21:31:35.525Z,80.26
2022-09-15T21:34:02.789Z,80.23
2022-09-15T21:36:31.872Z,80.07
2022-09-15T21:39:06.290Z,79.80
2022-09-15T21:41:33.562Z,79.97
2022-09-15T21:44:01.176Z,79.83
2022-09-15T21:46:30.211Z,80.01
2022-09-15T21:48:58.840Z,79.65
2022-09-15T21:51:33.673Z,79.38
2022-09-15T21:54:01.275Z,80.06
2022-09-15T21:56:31.300Z,80.11
2022-09-15T21:59:01.204Z,81.05
2022-09-15T22:01:30.750Z,80.81
2022-09-15T22:04:05.738Z,81.76
2022-09-15T22:06:40.881Z,82.11
2022-09-15T22:09:10.399Z,82.04
2022-09-15T22:11:37.821Z,81.42
2022-09-15T22:14:09.834Z,81.33
2022-09-15T22:16:38.892Z,80.81
2022-09-15T22:19:09.763Z,81.02
2022-09-15T22:21:41.666Z,80.91
2022-09-15T22:24:11.241Z,80.42
2022-09-15T22:26:38.512Z,80.69
2022-09-15T22:29:06.554Z,80.79
2022-09-15T22:31:34.158Z,80.44
2022-09-15T22:34:01.536Z,80.69
2022-09-15T22:36:30.395Z,80.84
2022-09-15T22:39:05.341Z,80.65
2022-09-15T22:41:35.227Z,80.69
2022-09-15T22:44:03.238Z,80.27
2022-09-15T22:46:30.571Z,80.16
2022-09-15T22:48:58.536Z,79.78
2022-09-15T22:51:25.878Z,79.79
2022-09-15T22:53:54.733Z,80.23
2022-09-15T22:56:23.364Z,80.17
2022-09-15T22:58:52.903Z,80.71
2022-09-15T23:01:22.610Z,81.07
2022-09-15T23:03:51.521Z,81.43
2022-09-15T23:06:19.764Z,81.74
2022-09-15T23:08:51.714Z,82.13
2022-09-15T23:11:19.194Z,82.30
2022-09-15T23:13:48.529Z,82.31
2022-09-15T23:16:16.283Z,82.85
2022-09-15T23:18:43.673Z,83.26
2022-09-15T23:21:12.276Z,83.21
2022-09-15T23:23:41.429Z,83.18
2022-09-15T23:26:10.273Z,83.69
2022-09-15T23:28:39.089Z,83.92
2022-09-15T23:31:06.822Z,84.20
2022-09-15T23:33:37.468Z,84.04
2022-09-15T23:36:07.254Z,84.22
2022-09-15T23:38:38.846Z,84.70
2022-09-15T23:41:07.184Z,84.45
2022-09-15T23:43:34.853Z,84.67
2022-09-15T23:46:02.097Z,84.48
2022-09-15T23:48:31.512Z,84.82
2022-09-15T23:50:59.086Z,85.29
2022-09-15T23:53:26.725Z,84.85
2022-09-15T23:55:57.115Z,85.03
2022-09-15T23:58:24.906Z,85.80
